In Rescue
 
Open Full Screen Window  High Contrast Mode
Wind Gusting 00 knots
03
July 23, 2019 1:19 AM EDT
Weather Information
Wind Direction
  340 °
Wind Speed
  03 kt (3 mph)
Wind Gust
  00 kt (0 mph)
Altimeter
30.03 in
Visibility
10 SM
Temperature
16° C
61° F
Dewpoint
08° C
46° F
Humidity
59%
Sky Condition
Clear
VFR

METAR KMGN 230519Z AUTO 34003KT 10SM CLR 16/08 A3003 RMK AO2 T01620091

FAA Disclaimer: The data displayed is for advisory purposes only and is not to be used for flight planning or operations.